Time;durP1;ratioP1;P1;durP2;ratioP2;P2;SDS_P1;SDS_P2;PMS_P1;PMS_P2;Temp;Humidity;BMP_temperature;BMP_pressure;BME280_temperature;BME280_humidity;BME280_pressure;Samples;Min_cycle;Max_cycle;Signal;HPM_P1;HPM_P2
2021/09/04 00:00:45;;;;;;;27.30;15.75;;;;;;;12.32;100.00;98008.47;5014601;28;20049;-81
2021/09/04 00:03:13;;;;;;;25.60;15.80;;;;;;;12.24;100.00;97993.78;4999276;28;21700;-81
2021/09/04 00:05:40;;;;;;;27.27;15.85;;;;;;;12.25;100.00;98003.53;4998971;28;20069;-82
2021/09/04 00:08:06;;;;;;;23.52;13.85;;;;;;;12.30;100.00;98000.66;4998587;28;20041;-82
2021/09/04 00:10:33;;;;;;;21.48;14.15;;;;;;;12.26;100.00;97985.34;4999351;28;20037;-84
2021/09/04 00:13:00;;;;;;;21.00;13.50;;;;;;;12.18;100.00;97989.59;5031649;28;20046;-83
2021/09/04 00:15:27;;;;;;;21.75;14.27;;;;;;;12.23;100.00;97997.59;4996098;28;20578;-83
2021/09/04 00:17:57;;;;;;;22.10;13.55;;;;;;;12.28;100.00;97981.19;4997183;28;20168;-82
2021/09/04 00:20:23;;;;;;;23.58;15.55;;;;;;;12.24;100.00;97982.13;5030608;28;20041;-82
2021/09/04 00:22:53;;;;;;;25.08;15.18;;;;;;;12.28;100.00;97988.53;4997293;28;20049;-82
2021/09/04 00:25:20;;;;;;;22.10;14.23;;;;;;;12.14;100.00;97987.84;5015225;28;20398;-83
2021/09/04 00:27:46;;;;;;;22.92;14.20;;;;;;;12.17;100.00;97988.03;4998080;28;20224;-82
2021/09/04 00:30:14;;;;;;;20.77;13.07;;;;;;;12.13;100.00;97991.69;5025265;28;20045;-83
2021/09/04 00:32:41;;;;;;;23.60;14.32;;;;;;;12.09;100.00;97988.81;5037614;28;20305;-83
2021/09/04 00:35:08;;;;;;;25.25;13.93;;;;;;;12.16;100.00;97991.03;5021080;28;20046;-83
2021/09/04 00:37:35;;;;;;;19.88;13.13;;;;;;;12.12;100.00;97977.31;5014675;28;20041;-82
2021/09/04 00:40:04;;;;;;;22.45;14.10;;;;;;;11.85;100.00;97983.78;5035564;28;20520;-82
2021/09/04 00:42:31;;;;;;;23.27;12.95;;;;;;;11.77;100.00;97992.69;5019161;28;20052;-82
2021/09/04 00:44:58;;;;;;;21.17;13.57;;;;;;;11.78;100.00;97978.00;5020482;28;20439;-83
2021/09/04 00:47:26;;;;;;;21.95;13.18;;;;;;;11.80;100.00;97980.41;5035433;28;20045;-83
2021/09/04 00:49:52;;;;;;;23.02;14.27;;;;;;;11.66;100.00;97974.28;5051010;28;20583;-85
2021/09/04 00:52:19;;;;;;;24.42;15.55;;;;;;;11.66;100.00;97976.97;5031911;28;20063;-84
2021/09/04 00:54:46;;;;;;;25.70;14.70;;;;;;;11.70;100.00;97991.53;5031864;28;20132;-84
2021/09/04 00:57:17;;;;;;;24.98;13.65;;;;;;;11.66;100.00;97982.41;5069727;28;20033;-84
2021/09/04 00:59:44;;;;;;;21.73;14.02;;;;;;;11.79;100.00;97984.25;5049536;28;20045;-83
2021/09/04 01:02:16;;;;;;;25.45;15.32;;;;;;;11.77;100.00;97976.41;5050130;28;20064;-83
2021/09/04 01:04:43;;;;;;;19.98;13.35;;;;;;;11.78;100.00;97979.91;5050780;28;20045;-83
2021/09/04 01:07:10;;;;;;;25.23;15.00;;;;;;;11.74;100.00;97977.03;5050799;28;20068;-83
2021/09/04 01:09:39;;;;;;;23.88;13.70;;;;;;;11.74;100.00;97968.13;5049524;28;20042;-83
2021/09/04 01:12:08;;;;;;;23.95;13.73;;;;;;;11.73;100.00;97974.63;5026462;28;20297;-84
2021/09/04 01:14:35;;;;;;;26.15;14.07;;;;;;;11.64;100.00;97981.94;5023698;28;20045;-83
2021/09/04 01:17:02;;;;;;;21.73;13.80;;;;;;;11.63;100.00;97983.03;5023636;28;20273;-83
2021/09/04 01:19:29;;;;;;;28.48;13.35;;;;;;;11.64;100.00;97981.94;5024065;28;20223;-84
2021/09/04 01:21:55;;;;;;;21.20;13.52;;;;;;;11.67;100.00;97975.84;5007888;28;20054;-83
2021/09/04 01:24:22;;;;;;;21.13;14.15;;;;;;;11.70;100.00;97972.56;5024258;28;20052;-83
2021/09/04 01:26:49;;;;;;;25.88;13.68;;;;;;;11.55;100.00;97971.03;5026952;28;20512;-82
2021/09/04 01:29:16;;;;;;;21.73;12.98;;;;;;;11.64;100.00;97988.13;5017821;28;20049;-82
2021/09/04 01:31:43;;;;;;;21.95;12.93;;;;;;;11.50;100.00;97984.72;5034595;28;20532;-82
2021/09/04 01:34:09;;;;;;;21.33;13.38;;;;;;;11.53;100.00;97977.88;5015927;28;20061;-82
2021/09/04 01:36:38;;;;;;;25.27;13.75;;;;;;;11.45;100.00;97984.88;5049034;28;20057;-82
2021/09/04 01:39:09;;;;;;;23.08;13.95;;;;;;;11.54;100.00;97980.28;5034408;28;20053;-82
2021/09/04 01:41:40;;;;;;;23.98;14.85;;;;;;;11.53;100.00;97992.25;5035949;28;20043;-82
2021/09/04 01:44:07;;;;;;;24.17;14.68;;;;;;;11.44;100.00;97983.25;5028716;28;20045;-82
2021/09/04 01:46:34;;;;;;;31.40;15.55;;;;;;;11.40;100.00;97976.06;5031330;28;20121;-83
2021/09/04 01:49:02;;;;;;;27.58;15.18;;;;;;;11.44;100.00;97977.84;5031862;28;20041;-82
2021/09/04 01:51:29;;;;;;;21.33;13.57;;;;;;;11.42;100.00;97963.00;5028888;28;20157;-83
2021/09/04 01:53:55;;;;;;;19.83;13.27;;;;;;;11.37;100.00;97977.50;5057905;28;20049;-83
2021/09/04 01:56:22;;;;;;;24.05;14.40;;;;;;;11.28;100.00;97965.78;5057250;28;20049;-82
2021/09/04 01:58:49;;;;;;;21.75;13.70;;;;;;;11.19;100.00;97954.91;5039574;28;20081;-82
2021/09/04 02:01:15;;;;;;;24.77;14.38;;;;;;;11.23;100.00;97965.91;5006339;28;20045;-82
2021/09/04 02:03:43;;;;;;;20.30;12.35;;;;;;;11.21;100.00;97954.59;5021445;28;20045;-82
2021/09/04 02:06:09;;;;;;;19.67;12.48;;;;;;;11.20;100.00;97951.09;5020907;28;20045;-83
2021/09/04 02:08:36;;;;;;;19.77;12.43;;;;;;;11.12;100.00;97961.91;5020408;28;20041;-82
2021/09/04 02:11:03;;;;;;;19.25;13.02;;;;;;;11.14;100.00;97952.34;5020397;28;20042;-81
2021/09/04 02:13:30;;;;;;;20.48;12.80;;;;;;;11.20;100.00;97956.50;5036352;28;20045;-81
2021/09/04 02:15:57;;;;;;;19.52;12.63;;;;;;;11.11;100.00;97944.81;5037985;28;20048;-81
2021/09/04 02:18:25;;;;;;;21.25;12.48;;;;;;;11.20;100.00;97950.31;5037782;28;20049;-81
2021/09/04 02:20:51;;;;;;;21.00;12.38;;;;;;;11.29;100.00;97951.13;5052481;28;20065;-82
2021/09/04 02:23:18;;;;;;;17.77;11.50;;;;;;;11.20;100.00;97950.31;5019809;28;20231;-81
2021/09/04 02:25:44;;;;;;;16.67;11.40;;;;;;;11.13;100.00;97950.72;5052672;28;20060;-82
2021/09/04 02:28:14;;;;;;;19.38;11.13;;;;;;;11.16;100.00;97954.72;5037426;28;20072;-81
2021/09/04 02:30:41;;;;;;;17.52;11.27;;;;;;;11.27;100.00;97962.31;5035149;28;20392;-81
2021/09/04 02:33:08;;;;;;;18.02;11.25;;;;;;;11.22;100.00;97959.72;5019977;28;20041;-82
2021/09/04 02:35:35;;;;;;;16.70;11.13;;;;;;;11.16;100.00;97963.66;5040123;28;20045;-80
2021/09/04 02:38:02;;;;;;;18.42;11.70;;;;;;;11.10;100.00;97966.78;5043159;28;20056;-82
2021/09/04 02:40:28;;;;;;;19.75;12.45;;;;;;;11.09;100.00;97957.09;5040733;28;20056;-82
2021/09/04 02:42:55;;;;;;;16.88;11.63;;;;;;;11.06;100.00;97966.63;5037813;28;20047;-83
2021/09/04 02:45:22;;;;;;;22.35;10.82;;;;;;;11.07;100.00;97959.31;5004082;28;20426;-80
2021/09/04 02:47:52;;;;;;;15.90;10.52;;;;;;;11.07;100.00;97970.94;5003744;28;20061;-80
2021/09/04 02:50:21;;;;;;;19.10;11.23;;;;;;;11.10;100.00;97961.38;5002346;28;20046;-81
2021/09/04 02:52:48;;;;;;;17.85;11.85;;;;;;;10.98;100.00;97950.31;4993636;28;20051;-82
2021/09/04 02:55:15;;;;;;;19.40;11.20;;;;;;;11.01;100.00;97961.34;4999295;28;20046;-82
2021/09/04 02:57:44;;;;;;;14.45;10.07;;;;;;;10.75;100.00;97967.69;4999385;28;20472;-83
2021/09/04 03:00:11;;;;;;;17.35;10.63;;;;;;;10.58;100.00;97955.59;4968330;28;20043;-80
2021/09/04 03:02:38;;;;;;;15.15;10.00;;;;;;;10.67;100.00;97965.72;5013105;28;20057;-83
2021/09/04 03:05:06;;;;;;;19.20;11.02;;;;;;;10.73;100.00;97961.78;5024636;28;20084;-83
2021/09/04 03:07:33;;;;;;;15.85;11.43;;;;;;;10.71;100.00;97959.38;5002294;28;20046;-81
2021/09/04 03:10:00;;;;;;;17.45;12.10;;;;;;;10.68;100.00;97965.41;5020458;28;20166;-81
2021/09/04 03:12:27;;;;;;;20.77;13.38;;;;;;;10.69;100.00;97964.28;5018739;28;20053;-82
2021/09/04 03:14:54;;;;;;;19.42;13.20;;;;;;;10.67;100.00;97968.41;5019521;28;20050;-82
2021/09/04 03:17:20;;;;;;;20.23;12.85;;;;;;;10.56;100.00;97957.84;5020172;28;20045;-82
2021/09/04 03:19:47;;;;;;;19.65;13.07;;;;;;;10.63;100.00;97958.19;5021649;28;20054;-81
2021/09/04 03:22:14;;;;;;;15.50;11.55;;;;;;;10.69;100.00;97958.88;5021967;28;20052;-81
2021/09/04 03:24:43;;;;;;;17.98;11.68;;;;;;;10.69;100.00;97960.78;5004990;28;20065;-82
2021/09/04 03:27:10;;;;;;;16.30;11.55;;;;;;;10.62;100.00;97972.06;5021610;28;20050;-82
2021/09/04 03:29:37;;;;;;;15.80;11.07;;;;;;;10.79;100.00;97965.97;5023075;28;20531;-83
2021/09/04 03:32:03;;;;;;;19.95;11.50;;;;;;;10.71;100.00;97959.38;5021303;28;20049;-82
2021/09/04 03:34:30;;;;;;;19.13;12.23;;;;;;;10.68;100.00;97970.03;5022851;28;20041;-82
2021/09/04 03:36:57;;;;;;;17.88;11.75;;;;;;;10.58;100.00;97968.38;5022345;28;20448;-81
2021/09/04 03:39:23;;;;;;;28.05;12.98;;;;;;;10.38;100.00;97969.63;5021763;28;20099;-81
2021/09/04 03:41:50;;;;;;;21.63;11.95;;;;;;;10.40;100.00;97972.03;5022535;28;20045;-84
2021/09/04 03:44:16;;;;;;;20.85;12.70;;;;;;;10.41;100.00;97976.31;5021891;28;20508;-81
2021/09/04 03:46:45;;;;;;;19.65;12.15;;;;;;;10.33;100.00;97975.16;4997174;28;20050;-82
2021/09/04 03:49:12;;;;;;;20.05;12.50;;;;;;;10.41;100.00;97969.00;4999252;28;20050;-82
2021/09/04 03:51:39;;;;;;;20.05;12.77;;;;;;;10.36;100.00;97979.97;5019654;28;20412;-82
2021/09/04 03:54:08;;;;;;;20.05;12.20;;;;;;;10.51;100.00;97971.47;5019989;28;20493;-83
2021/09/04 03:56:35;;;;;;;17.98;11.48;;;;;;;10.39;100.00;97967.72;5020828;28;20481;-81
2021/09/04 03:59:02;;;;;;;18.95;12.13;;;;;;;10.45;100.00;97963.81;5019750;28;20049;-83
2021/09/04 04:01:28;;;;;;;19.92;12.38;;;;;;;10.41;100.00;97973.63;5019721;28;20042;-83
2021/09/04 04:03:55;;;;;;;19.05;12.43;;;;;;;10.38;100.00;97968.81;5020746;28;20050;-82
2021/09/04 04:06:22;;;;;;;22.02;12.77;;;;;;;10.38;100.00;97974.22;5021031;28;20065;-82
2021/09/04 04:08:49;;;;;;;22.42;14.18;;;;;;;10.19;100.00;97976.28;5002237;28;20064;-81
2021/09/04 04:11:16;;;;;;;23.38;12.90;;;;;;;10.21;100.00;97971.38;5014721;28;20049;-81
2021/09/04 04:13:42;;;;;;;26.17;13.02;;;;;;;10.27;100.00;97975.56;4996376;28;20137;-82
2021/09/04 04:16:11;;;;;;;22.38;13.82;;;;;;;10.28;100.00;97966.34;5014365;28;20041;-81
2021/09/04 04:18:37;;;;;;;23.27;12.95;;;;;;;10.26;100.00;97969.34;5014249;28;20046;-81
2021/09/04 04:21:04;;;;;;;18.67;12.35;;;;;;;10.33;100.00;97968.94;5014447;28;20107;-80
2021/09/04 04:23:34;;;;;;;17.83;11.05;;;;;;;10.43;100.00;97968.69;5014070;28;20045;-80
2021/09/04 04:26:01;;;;;;;18.45;11.30;;;;;;;10.31;100.00;97965.72;5013469;28;20632;-82
2021/09/04 04:28:31;;;;;;;18.77;10.88;;;;;;;10.33;100.00;97974.34;5012011;28;20049;-82
2021/09/04 04:30:57;;;;;;;16.52;11.27;;;;;;;10.27;100.00;97960.13;5013174;28;20053;-81
2021/09/04 04:33:24;;;;;;;21.17;10.98;;;;;;;10.27;100.00;97964.75;5013700;28;20513;-80
2021/09/04 04:35:51;;;;;;;17.38;11.23;;;;;;;10.30;100.00;97978.47;5016051;28;20054;-83
2021/09/04 04:38:17;;;;;;;18.98;12.27;;;;;;;10.26;100.00;97977.47;5017788;28;20113;-82
2021/09/04 04:40:44;;;;;;;19.80;11.90;;;;;;;10.32;100.00;97975.47;5033520;23;20058;-80
2021/09/04 04:43:11;;;;;;;17.23;10.88;;;;;;;10.36;100.00;97979.16;5020620;28;20517;-82
2021/09/04 04:45:38;;;;;;;20.10;12.07;;;;;;;10.32;100.00;97981.69;5020290;28;20041;-81
2021/09/04 04:48:05;;;;;;;21.25;11.45;;;;;;;10.13;100.00;97974.78;5021299;28;20034;-80
2021/09/04 04:50:31;;;;;;;21.60;12.18;;;;;;;9.97;100.00;97977.78;5052289;28;20056;-81
2021/09/04 04:52:58;;;;;;;18.85;11.85;;;;;;;10.19;100.00;97982.50;5058237;28;20392;-78
2021/09/04 04:55:24;;;;;;;19.77;12.02;;;;;;;10.18;100.00;97969.25;5061777;28;20045;-77
2021/09/04 04:57:51;;;;;;;20.38;11.93;;;;;;;10.44;100.00;97989.25;5065699;28;20481;-81
2021/09/04 05:00:18;;;;;;;16.60;10.95;;;;;;;10.44;100.00;97971.13;5060230;28;20075;-77
2021/09/04 05:02:44;;;;;;;18.55;11.98;;;;;;;10.45;100.00;97991.66;5057824;28;20045;-80
2021/09/04 05:05:11;;;;;;;19.83;12.27;;;;;;;10.45;100.00;97969.22;5024468;28;20527;-80
2021/09/04 05:07:38;;;;;;;21.92;12.80;;;;;;;10.59;100.00;97983.50;5058028;28;20044;-77
2021/09/04 05:10:05;;;;;;;20.90;13.15;;;;;;;10.54;100.00;97981.69;5058797;28;20041;-78
2021/09/04 05:12:32;;;;;;;19.73;12.48;;;;;;;10.72;100.00;97984.53;5040962;28;20104;-81
2021/09/04 05:14:58;;;;;;;23.58;12.90;;;;;;;10.72;100.00;97985.34;5040839;28;20055;-79
2021/09/04 05:17:25;;;;;;;21.00;12.35;;;;;;;10.74;100.00;97985.84;5059472;28;20045;-77
2021/09/04 05:19:51;;;;;;;20.52;11.68;;;;;;;10.75;100.00;97981.22;5061008;28;20041;-78
2021/09/04 05:22:18;;;;;;;22.08;12.27;;;;;;;10.97;100.00;97992.84;5049491;28;20091;-77
2021/09/04 05:24:44;;;;;;;20.33;11.30;;;;;;;10.99;100.00;97985.25;5071134;28;20067;-76
2021/09/04 05:27:11;;;;;;;21.23;10.15;;;;;;;11.13;100.00;97991.38;5064325;28;20045;-78
2021/09/04 05:29:37;;;;;;;16.60;10.65;;;;;;;11.24;100.00;97983.78;5062749;28;20041;-79
2021/09/04 05:32:04;;;;;;;22.23;11.18;;;;;;;11.24;100.00;97991.91;5060449;28;20110;-78
2021/09/04 05:37:23;;;;;;;19.73;11.05;;;;;;;11.46;100.00;97981.03;5056847;28;20091;-79
2021/09/04 05:39:49;;;;;;;15.48;10.45;;;;;;;11.57;100.00;97987.78;5040378;28;20048;-76
2021/09/04 05:42:16;;;;;;;18.38;10.80;;;;;;;11.68;100.00;97988.31;5056442;28;20059;-78
2021/09/04 05:44:43;;;;;;;20.67;11.20;;;;;;;11.84;100.00;97995.75;5052263;28;20064;-78
2021/09/04 05:47:09;;;;;;;18.02;11.13;;;;;;;11.85;100.00;97991.91;5042651;28;20041;-77
2021/09/04 05:49:36;;;;;;;15.38;10.68;;;;;;;11.92;100.00;97996.91;5034913;28;20036;-78
2021/09/04 05:52:03;;;;;;;17.90;11.65;;;;;;;12.09;100.00;98004.28;5053936;28;20067;-77
2021/09/04 05:54:33;;;;;;;21.25;11.95;;;;;;;12.11;100.00;98000.13;5036214;28;20643;-78
2021/09/04 05:57:00;;;;;;;16.88;10.68;;;;;;;12.15;100.00;97995.69;5047208;28;20045;-78
2021/09/04 05:59:26;;;;;;;18.60;12.27;;;;;;;12.40;100.00;97999.56;5052817;28;20045;-79
2021/09/04 06:01:53;;;;;;;20.50;12.50;;;;;;;12.49;100.00;98003.09;5053866;28;20075;-79
2021/09/04 06:04:20;;;;;;;23.38;15.57;;;;;;;12.66;100.00;97994.94;5071800;28;20109;-78
2021/09/04 06:06:46;;;;;;;29.02;16.58;;;;;;;12.76;100.00;97985.66;5056001;28;20068;-78
2021/09/04 06:09:13;;;;;;;25.95;13.95;;;;;;;12.92;100.00;97992.22;5054669;28;20416;-81
2021/09/04 06:11:39;;;;;;;20.77;12.98;;;;;;;12.92;100.00;97978.63;5038508;28;20488;-80
2021/09/04 06:14:06;;;;;;;25.08;14.88;;;;;;;13.20;100.00;97984.53;5059344;28;20048;-79
2021/09/04 06:16:32;;;;;;;33.55;18.48;;;;;;;13.42;100.00;97982.41;5054018;28;20103;-78
2021/09/04 06:18:59;;;;;;;34.83;20.35;;;;;;;13.61;100.00;97985.53;5049235;28;20033;-80
2021/09/04 06:21:25;;;;;;;34.70;20.58;;;;;;;13.73;100.00;97993.81;5055999;28;20045;-80
2021/09/04 06:23:52;;;;;;;33.47;20.73;;;;;;;13.91;100.00;97991.81;5036504;28;20045;-80
2021/09/04 06:26:18;;;;;;;51.50;24.65;;;;;;;14.16;100.00;98003.72;5055656;28;20044;-79
2021/09/04 06:28:45;;;;;;;34.58;20.70;;;;;;;14.23;100.00;97993.88;5053454;28;20033;-77
2021/09/04 06:31:11;;;;;;;41.72;20.85;;;;;;;14.37;100.00;98003.78;5039813;28;20051;-78
2021/09/04 06:33:38;;;;;;;58.67;28.88;;;;;;;14.61;100.00;98003.91;5058462;28;20044;-80
2021/09/04 06:36:04;;;;;;;83.60;40.17;;;;;;;14.91;100.00;97997.28;5039316;28;20049;-81
2021/09/04 06:38:31;;;;;;;79.50;40.22;;;;;;;15.06;100.00;97996.66;5035413;28;20048;-81
2021/09/04 06:40:57;;;;;;;77.53;38.83;;;;;;;15.37;100.00;97994.28;5052217;28;20045;-80
2021/09/04 06:43:24;;;;;;;69.25;36.78;;;;;;;15.59;100.00;98001.28;5053673;28;20058;-80
2021/09/04 06:45:51;;;;;;;69.43;35.22;;;;;;;15.76;100.00;97995.63;5053513;28;20047;-79
2021/09/04 06:48:18;;;;;;;59.13;32.10;;;;;;;15.75;100.00;98006.88;5053261;28;20045;-80
2021/09/04 06:50:45;;;;;;;64.03;32.65;;;;;;;15.70;100.00;97994.25;5035008;28;20049;-80
2021/09/04 06:53:11;;;;;;;76.60;36.03;;;;;;;15.90;100.00;98003.47;5056459;28;20045;-82
2021/09/04 06:55:38;;;;;;;67.40;33.00;;;;;;;15.99;100.00;98013.19;5055536;28;20515;-76
2021/09/04 06:58:05;;;;;;;62.92;32.30;;;;;;;16.05;100.00;98000.88;5056265;28;20071;-82
2021/09/04 07:00:31;;;;;;;60.15;33.63;;;;;;;16.27;100.00;98004.28;5057752;28;20041;-81
2021/09/04 07:02:58;;;;;;;58.83;32.60;;;;;;;16.34;100.00;97997.09;5039101;28;20049;-82
2021/09/04 07:05:25;;;;;;;62.58;31.30;;;;;;;16.41;100.00;97991.88;5045659;28;20073;-81
2021/09/04 07:07:52;;;;;;;52.83;29.80;;;;;;;16.54;100.00;97996.19;5055929;28;20702;-83
2021/09/04 07:10:18;;;;;;;49.13;28.25;;;;;;;16.59;100.00;98004.19;5054645;28;20109;-80
2021/09/04 07:12:45;;;;;;;52.42;29.23;;;;;;;16.84;100.00;98002.16;5071090;28;20373;-79
2021/09/04 07:15:12;;;;;;;54.60;30.42;;;;;;;16.61;100.00;97999.16;5056611;28;20216;-80
2021/09/04 07:17:38;;;;;;;53.15;29.85;;;;;;;16.81;100.00;98002.84;5052500;28;20055;-78
2021/09/04 07:20:06;;;;;;;48.72;28.80;;;;;;;16.88;100.00;98003.06;5055356;28;20045;-80
2021/09/04 07:22:34;;;;;;;55.35;28.55;;;;;;;17.02;100.00;97999.94;5059090;28;20040;-81
2021/09/04 07:25:01;;;;;;;51.42;29.67;;;;;;;17.19;100.00;98003.16;5057987;28;20049;-79
2021/09/04 07:27:27;;;;;;;50.88;28.35;;;;;;;17.47;100.00;98016.06;5054097;28;20140;-79
2021/09/04 07:29:54;;;;;;;45.80;27.38;;;;;;;17.52;100.00;98013.88;5053002;28;20037;-79
2021/09/04 07:32:20;;;;;;;44.03;26.30;;;;;;;17.71;100.00;98013.19;5053265;28;20048;-79
2021/09/04 07:34:48;;;;;;;53.40;28.20;;;;;;;17.52;100.00;98002.91;5055776;28;20500;-81
2021/09/04 07:37:15;;;;;;;50.10;28.10;;;;;;;17.52;100.00;98007.59;5052756;28;20276;-79
2021/09/04 07:39:41;;;;;;;51.97;29.35;;;;;;;17.66;100.00;98018.94;5054084;28;20052;-80
2021/09/04 07:42:08;;;;;;;51.47;28.15;;;;;;;17.78;100.00;98005.94;5057260;28;20196;-78
2021/09/04 07:44:35;;;;;;;51.08;28.05;;;;;;;17.51;100.00;98017.72;5041248;28;20049;-80
2021/09/04 07:47:01;;;;;;;56.28;29.25;;;;;;;17.65;100.00;98018.16;5058812;28;20045;-81
2021/09/04 07:49:28;;;;;;;55.55;29.33;;;;;;;17.93;100.00;98024.38;5058331;28;20067;-80
2021/09/04 07:51:55;;;;;;;55.10;32.20;;;;;;;17.74;100.00;98017.97;5057741;28;20060;-82
2021/09/04 07:54:22;;;;;;;62.83;33.40;;;;;;;17.57;100.00;98021.84;5059189;28;20127;-82
2021/09/04 07:56:49;;;;;;;67.97;34.83;;;;;;;17.17;100.00;98029.28;5058062;28;20056;-83
2021/09/04 07:59:16;;;;;;;68.50;35.47;;;;;;;17.19;100.00;98032.47;5056810;28;20036;-80
2021/09/04 08:01:42;;;;;;;72.43;36.80;;;;;;;17.10;100.00;98021.69;5039784;28;20055;-84
2021/09/04 08:04:09;;;;;;;67.03;35.28;;;;;;;17.16;100.00;98023.00;5039034;28;20041;-81
2021/09/04 08:06:35;;;;;;;65.22;34.85;;;;;;;17.79;100.00;98029.47;5039854;28;20114;-80
2021/09/04 08:09:02;;;;;;;66.35;34.60;;;;;;;17.78;100.00;98038.81;5059483;28;20037;-78
2021/09/04 08:11:28;;;;;;;61.95;34.10;;;;;;;17.68;100.00;98049.50;5058436;28;20049;-81
2021/09/04 08:13:55;;;;;;;58.53;31.15;;;;;;;18.00;100.00;98040.16;5060692;28;20071;-82
2021/09/04 08:16:22;;;;;;;60.88;30.13;;;;;;;17.77;100.00;98030.97;5041878;28;20068;-83
2021/09/04 08:18:48;;;;;;;64.80;30.98;;;;;;;17.66;100.00;98052.59;5061566;28;20488;-79
2021/09/04 08:21:15;;;;;;;59.60;31.08;;;;;;;17.84;100.00;98042.91;5061670;28;20238;-82
2021/09/04 08:23:42;;;;;;;51.83;29.88;;;;;;;17.91;100.00;98039.56;5059978;28;20051;-79
2021/09/04 08:26:09;;;;;;;57.65;29.60;;;;;;;17.72;100.00;98055.88;5062267;28;20299;-78
2021/09/04 08:28:37;;;;;;;57.17;28.75;;;;;;;16.95;100.00;98057.97;5057759;28;20068;-81
2021/09/04 08:31:03;;;;;;;51.03;28.73;;;;;;;17.03;100.00;98053.53;5059707;28;20048;-79
2021/09/04 08:33:30;;;;;;;55.92;28.80;;;;;;;17.27;100.00;98048.75;5059090;28;20045;-80
2021/09/04 08:35:59;;;;;;;51.33;28.98;;;;;;;17.92;100.00;98052.91;5060974;28;20024;-79
2021/09/04 08:38:28;;;;;;;51.58;29.35;;;;;;;17.61;100.00;98060.25;5060444;28;20335;-82
2021/09/04 08:40:54;;;;;;;58.97;29.55;;;;;;;18.00;100.00;98046.44;5061815;28;20041;-82
2021/09/04 08:43:22;;;;;;;52.05;28.13;;;;;;;18.34;100.00;98038.66;5062055;28;20041;-79
2021/09/04 08:45:48;;;;;;;66.15;30.75;;;;;;;18.03;100.00;98050.44;5059731;28;20078;-80
2021/09/04 08:48:16;;;;;;;52.60;27.85;;;;;;;18.53;100.00;98061.47;5058519;28;20056;-81
2021/09/04 08:50:42;;;;;;;62.97;29.73;;;;;;;18.19;100.00;98064.94;5041678;28;20037;-82
2021/09/04 08:53:09;;;;;;;59.30;30.45;;;;;;;18.50;100.00;98075.91;5058144;28;20044;-82
2021/09/04 08:55:35;;;;;;;52.63;28.63;;;;;;;18.45;100.00;98069.88;5061203;28;20044;-79
2021/09/04 08:58:02;;;;;;;55.45;28.58;;;;;;;18.73;100.00;98064.28;5043176;28;20055;-80
2021/09/04 09:00:31;;;;;;;60.60;29.75;;;;;;;18.67;100.00;98064.56;5060125;28;20045;-80
2021/09/04 09:02:59;;;;;;;50.30;27.83;;;;;;;18.77;100.00;98073.38;5067737;28;20051;-79
2021/09/04 09:05:37;;;;;;;50.90;28.35;;;;;;;18.49;100.00;98060.59;5053257;28;20056;-80
2021/09/04 09:08:04;;;;;;;48.08;27.73;;;;;;;18.68;100.00;98079.84;5053201;28;20053;-77
2021/09/04 09:10:37;;;;;;;44.60;26.17;;;;;;;19.12;100.00;98076.91;5033843;28;20124;-77
2021/09/04 09:13:05;;;;;;;47.78;26.77;;;;;;;19.14;100.00;98080.09;5062749;28;20051;-76
2021/09/04 09:15:37;;;;;;;46.55;25.67;;;;;;;19.09;100.00;98083.13;5055513;28;20445;-77
2021/09/04 09:18:07;;;;;;;41.03;24.42;;;;;;;19.14;100.00;98063.63;5042619;28;20049;-76
2021/09/04 09:20:35;;;;;;;42.30;24.45;;;;;;;19.32;100.00;98067.53;5021740;28;20148;-81
2021/09/04 09:23:09;;;;;;;40.70;25.58;;;;;;;18.71;100.00;98072.88;5054753;28;20124;-78
2021/09/04 09:25:42;;;;;;;45.10;25.23;;;;;;;19.37;100.00;98072.75;5057888;28;20140;-78
2021/09/04 09:28:12;;;;;;;44.50;24.48;;;;;;;19.85;100.00;98071.31;5074893;28;20096;-80
2021/09/04 09:30:44;;;;;;;42.65;24.42;;;;;;;20.33;100.00;98080.84;5065517;28;20041;-78
2021/09/04 09:33:14;;;;;;;39.10;23.75;;;;;;;20.14;100.00;98069.88;5056476;28;20049;-78
2021/09/04 09:35:44;;;;;;;38.30;23.77;;;;;;;19.89;100.00;98080.44;5059010;28;20590;-88
2021/09/04 09:38:14;;;;;;;44.65;23.27;;;;;;;19.63;100.00;98070.16;5054502;28;20147;-79
2021/09/04 09:40:42;;;;;;;41.40;24.65;;;;;;;19.63;100.00;98074.84;5052257;28;20421;-80
2021/09/04 09:43:23;;;;;;;39.35;24.65;;;;;;;19.64;100.00;98068.97;5052118;28;20040;-77
2021/09/04 09:45:52;;;;;;;38.72;23.30;;;;;;;19.53;100.00;98068.00;5054185;28;20102;-80
2021/09/04 09:48:30;;;;;;;41.53;24.20;;;;;;;19.74;100.00;98076.63;5068000;28;20103;-81
2021/09/04 09:50:59;;;;;;;36.75;22.88;;;;;;;20.16;100.00;98067.56;5073813;28;20040;-79
2021/09/04 09:53:26;;;;;;;43.28;25.98;;;;;;;19.80;100.00;98083.41;5067228;28;20044;-74
2021/09/04 09:55:55;;;;;;;41.92;24.05;;;;;;;19.89;100.00;98084.00;5052884;28;20052;-77
2021/09/04 09:58:23;;;;;;;39.65;22.90;;;;;;;20.00;100.00;98075.94;5052052;28;20061;-78
2021/09/04 10:00:51;;;;;;;40.88;22.45;;;;;;;20.60;100.00;98076.97;5060536;28;20041;-77
2021/09/04 10:03:20;;;;;;;40.85;23.88;;;;;;;20.36;100.00;98075.41;5055173;28;20180;-85
2021/09/04 10:05:47;;;;;;;37.70;23.23;;;;;;;19.92;100.00;98073.44;5049929;28;20045;-83
2021/09/04 10:08:16;;;;;;;37.25;23.52;;;;;;;20.10;100.00;98052.53;5034756;28;20052;-82
2021/09/04 10:10:43;;;;;;;38.03;23.55;;;;;;;20.54;100.00;98067.47;5054150;28;20037;-86
2021/09/04 10:13:12;;;;;;;36.83;22.02;;;;;;;20.63;100.00;98072.69;5060384;28;20032;-81
2021/09/04 10:15:42;;;;;;;38.38;22.67;;;;;;;20.69;100.00;98084.97;5062543;28;20120;-82
2021/09/04 10:18:09;;;;;;;35.38;21.65;;;;;;;20.63;100.00;98076.22;5052133;28;20053;-84
2021/09/04 10:20:37;;;;;;;37.35;22.65;;;;;;;20.91;100.00;98073.09;5053202;28;20041;-82
2021/09/04 10:23:55;;;;;;;36.60;22.27;;;;;;;20.30;100.00;98063.13;5052899;28;20105;-82
2021/09/04 10:26:31;;;;;;;39.75;24.35;;;;;;;21.41;100.00;98075.38;5053118;28;20076;-83
2021/09/04 10:29:06;;;;;;;39.47;22.52;;;;;;;21.33;100.00;98068.19;5061874;28;20036;-82
2021/09/04 10:31:54;;;;;;;38.00;22.98;;;;;;;20.67;100.00;98076.28;5055340;28;20039;-80
2021/09/04 10:34:25;;;;;;;;;;;;;;;20.91;100.00;98071.13;5072963;28;20029;-88
2021/09/04 10:36:57;;;;;;;34.13;20.45;;;;;;;21.46;100.00;98075.06;5071183;28;19920;-78
2021/09/04 10:42:28;;;;;;;36.25;21.50;;;;;;;21.54;100.00;98073.97;5003047;28;20396;-83
2021/09/04 10:45:16;;;;;;;35.85;20.52;;;;;;;21.34;100.00;98066.25;5021651;28;20058;-80
2021/09/04 10:47:52;;;;;;;39.67;21.30;;;;;;;20.74;100.00;98049.66;5018372;28;20052;-81
2021/09/04 10:50:22;;;;;;;;;;;;;;;20.71;100.00;98055.13;5029724;28;20053;-80
2021/09/04 10:53:02;;;;;;;39.38;21.58;;;;;;;20.32;100.00;98049.81;5012720;28;19925;-79
2021/09/04 10:55:40;;;;;;;37.25;21.63;;;;;;;20.57;100.00;98039.19;5014232;28;20041;-82
2021/09/04 10:58:15;;;;;;;38.72;21.67;;;;;;;20.18;100.00;98046.78;5013339;28;20103;-80
2021/09/04 11:00:47;;;;;;;35.23;21.47;;;;;;;20.53;100.00;98054.84;5012054;28;20038;-80
2021/09/04 11:03:21;;;;;;;36.33;21.85;;;;;;;20.79;100.00;98054.06;5009101;28;20289;-79
2021/09/04 11:05:48;;;;;;;36.42;20.63;;;;;;;21.30;100.00;98059.88;4983025;28;20042;-78
2021/09/04 11:08:22;;;;;;;32.08;20.30;;;;;;;21.47;100.00;98059.31;4968298;28;20050;-79
2021/09/04 11:11:27;;;;;;;34.13;20.60;;;;;;;21.10;100.00;98057.28;4967442;28;20406;-80
2021/09/04 11:13:56;;;;;;;32.92;19.95;;;;;;;20.26;100.00;98053.25;4983590;28;20050;-79
2021/09/04 11:16:33;;;;;;;33.25;20.42;;;;;;;20.52;100.00;98033.22;5004253;28;20054;-80
2021/09/04 11:19:10;;;;;;;35.78;21.42;;;;;;;21.30;100.00;98065.38;4992562;28;20092;-82